createdAt,value
2022-12-18T00:02:07.774Z,12.00
2022-12-18T00:06:26.726Z,10.80
2022-12-18T00:10:44.701Z,17.42
2022-12-18T00:15:01.605Z,9.20
2022-12-18T00:19:18.831Z,10.70
2022-12-18T00:23:37.636Z,17.92
2022-12-18T00:27:55.007Z,23.65
2022-12-18T00:32:11.942Z,15.38
2022-12-18T00:36:34.764Z,10.93
2022-12-18T00:40:51.778Z,9.77
2022-12-18T00:45:12.853Z,9.80
2022-12-18T00:49:30.343Z,10.52
2022-12-18T00:53:47.400Z,13.55
2022-12-18T00:58:04.423Z,11.35
2022-12-18T01:02:21.588Z,8.82
2022-12-18T01:06:38.725Z,9.40
2022-12-18T01:10:55.711Z,11.38
2022-12-18T01:15:16.176Z,11.98
2022-12-18T01:19:33.185Z,9.35
2022-12-18T01:23:55.833Z,9.90
2022-12-18T01:28:12.651Z,10.55
2022-12-18T01:32:32.475Z,11.00
2022-12-18T01:36:49.625Z,10.35
2022-12-18T01:41:06.694Z,10.18
2022-12-18T01:45:32.881Z,10.93
2022-12-18T01:49:50.176Z,10.20
2022-12-18T01:54:07.039Z,10.27
2022-12-18T01:59:03.170Z,11.98
2022-12-18T02:03:20.088Z,8.48
2022-12-18T02:08:05.253Z,9.10
2022-12-18T02:12:30.095Z,10.40
2022-12-18T02:17:19.341Z,9.55
2022-12-18T02:21:53.221Z,9.57
2022-12-18T02:26:35.913Z,11.10
2022-12-18T02:30:57.465Z,11.27
2022-12-18T02:35:21.525Z,10.85
2022-12-18T02:39:41.363Z,10.63
2022-12-18T02:44:13.540Z,10.82
2022-12-18T02:48:36.184Z,11.80
2022-12-18T02:53:37.536Z,12.27
2022-12-18T02:58:26.086Z,12.50
2022-12-18T03:03:24.335Z,11.95
2022-12-18T03:07:56.549Z,10.23
2022-12-18T03:12:28.993Z,10.32
2022-12-18T03:16:48.063Z,11.02
2022-12-18T03:21:08.694Z,12.45
2022-12-18T03:25:27.933Z,14.52
2022-12-18T03:30:08.773Z,12.60
2022-12-18T03:34:33.387Z,14.20
2022-12-18T03:38:50.488Z,12.73
2022-12-18T03:43:26.614Z,13.10
2022-12-18T03:48:20.039Z,11.98
2022-12-18T03:52:46.578Z,12.27
2022-12-18T03:57:16.436Z,13.57
2022-12-18T04:01:38.453Z,12.60
2022-12-18T04:05:57.765Z,13.45
2022-12-18T04:10:16.882Z,14.10
2022-12-18T04:14:36.880Z,13.77
2022-12-18T04:18:54.428Z,13.23
2022-12-18T04:23:14.987Z,14.27
2022-12-18T04:27:31.999Z,14.13
2022-12-18T04:31:49.066Z,12.60
2022-12-18T04:36:06.537Z,14.30
2022-12-18T04:40:23.644Z,15.07
2022-12-18T04:44:40.447Z,14.93
2022-12-18T04:48:57.589Z,13.18
2022-12-18T04:53:14.424Z,13.13
2022-12-18T04:57:31.466Z,12.60
2022-12-18T05:01:48.469Z,14.18
2022-12-18T05:06:07.147Z,13.15
2022-12-18T05:10:24.161Z,14.65
2022-12-18T05:14:41.258Z,14.77
2022-12-18T05:18:58.221Z,14.20
2022-12-18T05:23:15.262Z,13.43
2022-12-18T05:27:32.093Z,13.85
2022-12-18T05:31:49.233Z,13.95
2022-12-18T05:36:09.052Z,15.07
2022-12-18T05:40:26.145Z,14.63
2022-12-18T05:44:44.086Z,14.98
2022-12-18T05:49:02.495Z,13.20
2022-12-18T05:57:38.635Z,13.70
2022-12-18T06:01:55.567Z,14.40
2022-12-18T06:06:20.631Z,14.93
2022-12-18T06:10:38.549Z,13.93
2022-12-18T06:14:55.461Z,13.13
2022-12-18T06:19:17.533Z,13.38
2022-12-18T06:23:34.691Z,14.20
2022-12-18T06:27:51.764Z,14.57
2022-12-18T06:32:08.902Z,17.10
2022-12-18T06:36:26.030Z,18.13
2022-12-18T06:40:42.921Z,14.57
2022-12-18T06:45:00.089Z,14.30
2022-12-18T06:49:17.176Z,13.23
2022-12-18T06:53:34.661Z,14.32
2022-12-18T06:57:51.580Z,16.57
2022-12-18T07:02:14.031Z,20.88
2022-12-18T07:06:30.975Z,16.48
2022-12-18T07:10:55.770Z,15.52
2022-12-18T07:15:13.336Z,15.90
2022-12-18T07:19:30.940Z,13.77
2022-12-18T07:23:49.415Z,16.10
2022-12-18T07:28:07.774Z,16.58
2022-12-18T07:32:25.676Z,18.00
2022-12-18T07:36:42.942Z,14.80
2022-12-18T07:41:04.436Z,14.82
2022-12-18T07:45:23.838Z,16.48
2022-12-18T07:49:40.782Z,17.17
2022-12-18T07:53:58.434Z,18.85
2022-12-18T07:58:15.349Z,18.60
2022-12-18T08:02:33.272Z,19.15
2022-12-18T08:06:50.121Z,17.70
2022-12-18T08:11:07.401Z,18.20
2022-12-18T08:15:24.709Z,18.27
2022-12-18T08:19:41.972Z,24.97
2022-12-18T08:24:01.846Z,24.38
2022-12-18T08:28:19.098Z,25.67
2022-12-18T08:32:35.980Z,24.42
2022-12-18T08:36:53.064Z,25.95
2022-12-18T08:41:13.174Z,36.88
2022-12-18T08:45:30.288Z,36.30
2022-12-18T08:49:47.185Z,37.20
2022-12-18T08:54:06.465Z,37.13
2022-12-18T08:58:24.062Z,29.10
2022-12-18T09:02:40.985Z,26.88
2022-12-18T09:06:58.182Z,26.83
2022-12-18T09:11:24.327Z,24.25
2022-12-18T09:15:47.198Z,19.77
2022-12-18T09:20:04.558Z,19.38
2022-12-18T09:24:21.705Z,18.35
2022-12-18T09:28:38.997Z,18.30
2022-12-18T09:32:56.930Z,18.88
2022-12-18T09:37:13.817Z,19.25
2022-12-18T09:41:44.466Z,18.27
2022-12-18T09:46:10.271Z,18.67
2022-12-18T09:50:40.474Z,19.88
2022-12-18T09:55:22.426Z,18.67
2022-12-18T09:59:44.451Z,17.08
2022-12-18T10:04:03.248Z,19.80
2022-12-18T10:08:34.918Z,17.60
2022-12-18T10:13:11.387Z,81.85
2022-12-18T10:18:02.577Z,20.77
2022-12-18T10:23:10.651Z,35.33
2022-12-18T10:27:29.645Z,20.63
2022-12-18T10:31:48.490Z,18.98
2022-12-18T10:36:07.336Z,17.10
2022-12-18T10:40:25.393Z,17.80
2022-12-18T10:44:44.245Z,16.35
2022-12-18T10:49:01.147Z,18.08
2022-12-18T10:53:29.830Z,19.60
2022-12-18T10:57:48.609Z,20.50
2022-12-18T11:07:10.645Z,17.55
2022-12-18T11:11:28.491Z,20.27
2022-12-18T11:15:47.241Z,21.50
2022-12-18T11:20:15.747Z,18.50
2022-12-18T11:24:36.703Z,32.88
2022-12-18T11:29:11.409Z,17.30
2022-12-18T11:33:28.615Z,18.02
2022-12-18T11:37:58.799Z,15.77
2022-12-18T11:42:42.754Z,18.25
2022-12-18T11:47:32.549Z,19.63
2022-12-18T11:52:14.821Z,29.88
2022-12-18T11:56:49.227Z,15.23
2022-12-18T12:01:44.849Z,15.55
2022-12-18T12:06:11.741Z,14.52
2022-12-18T12:11:07.980Z,14.23
2022-12-18T12:16:14.007Z,19.70
2022-12-18T12:20:53.823Z,13.53
2022-12-18T12:25:33.082Z,14.13
2022-12-18T12:30:10.412Z,18.42
2022-12-18T12:34:57.657Z,22.63
2022-12-18T12:39:23.748Z,14.15
2022-12-18T12:43:50.790Z,12.50
2022-12-18T12:48:23.679Z,17.48
2022-12-18T12:52:48.640Z,13.77
2022-12-18T12:57:28.467Z,12.23
2022-12-18T13:02:21.146Z,14.38
2022-12-18T13:06:59.803Z,14.00
2022-12-18T13:12:10.297Z,18.98
2022-12-18T13:16:28.666Z,12.48
2022-12-18T13:20:55.202Z,18.58
2022-12-18T13:25:36.642Z,16.13
2022-12-18T13:34:28.420Z,13.00
2022-12-18T13:38:46.441Z,12.82
2022-12-18T13:43:21.146Z,13.35
2022-12-18T13:47:39.320Z,16.17
2022-12-18T13:51:57.260Z,16.70
2022-12-18T13:56:22.207Z,16.83
2022-12-18T14:00:43.910Z,21.70
2022-12-18T14:05:00.961Z,31.08
2022-12-18T14:09:27.005Z,28.47
2022-12-18T14:13:44.797Z,41.20
2022-12-18T14:18:45.136Z,44.15
2022-12-18T14:23:02.903Z,35.83
2022-12-18T14:27:26.114Z,27.83
2022-12-18T14:31:42.960Z,21.55
2022-12-18T14:36:06.226Z,21.08
2022-12-18T14:40:23.105Z,19.90
2022-12-18T14:45:05.156Z,19.40
2022-12-18T14:49:35.952Z,24.40
2022-12-18T14:54:04.373Z,26.85
2022-12-18T14:58:21.480Z,26.80
2022-12-18T15:02:38.681Z,25.70
2022-12-18T15:07:25.145Z,24.92
2022-12-18T15:11:41.929Z,26.52
2022-12-18T15:16:04.223Z,29.35
2022-12-18T15:20:21.494Z,44.42
2022-12-18T15:24:38.503Z,32.00
2022-12-18T15:28:58.731Z,29.75
2022-12-18T15:33:27.077Z,30.55
2022-12-18T15:42:21.308Z,29.55
2022-12-18T15:46:38.433Z,30.98
2022-12-18T15:50:59.648Z,45.70
2022-12-18T15:55:39.613Z,39.00
2022-12-18T15:59:59.574Z,43.75
2022-12-18T16:04:21.656Z,43.85
2022-12-18T16:08:38.837Z,56.70
2022-12-18T16:17:15.821Z,52.20
2022-12-18T16:21:34.210Z,54.42
2022-12-18T16:25:51.955Z,56.42
2022-12-18T16:30:18.166Z,51.42
2022-12-18T16:34:36.281Z,58.08
2022-12-18T16:38:53.372Z,58.45
2022-12-18T16:43:10.200Z,58.05
2022-12-18T16:47:27.256Z,59.58
2022-12-18T16:51:46.519Z,52.33
2022-12-18T16:56:03.566Z,45.35
2022-12-18T17:04:38.786Z,49.78
2022-12-18T17:09:03.882Z,46.35
2022-12-18T17:13:25.525Z,33.25
2022-12-18T17:17:42.996Z,32.25
2022-12-18T17:22:00.113Z,30.40
2022-12-18T17:26:17.383Z,31.20
2022-12-18T17:30:34.233Z,31.50
2022-12-18T17:34:51.353Z,59.95
2022-12-18T17:39:08.582Z,30.88
2022-12-18T17:43:25.608Z,27.23
2022-12-18T17:47:42.414Z,27.35
2022-12-18T17:51:59.500Z,29.92
2022-12-18T17:56:20.094Z,29.40
2022-12-18T18:00:39.553Z,43.20
2022-12-18T18:04:56.382Z,38.42
2022-12-18T18:09:16.451Z,53.58
2022-12-18T18:14:30.968Z,45.55
2022-12-18T18:18:47.838Z,50.10
2022-12-18T18:23:05.006Z,60.65
2022-12-18T18:27:22.018Z,45.70
2022-12-18T18:31:41.082Z,33.60
2022-12-18T18:35:58.319Z,36.92
2022-12-18T18:40:15.488Z,22.40
2022-12-18T18:44:32.570Z,31.75
2022-12-18T18:48:49.869Z,36.45
2022-12-18T18:53:06.735Z,39.00
2022-12-18T18:57:28.718Z,32.55
2022-12-18T19:01:48.451Z,29.33
2022-12-18T19:06:07.696Z,28.52
2022-12-18T19:10:24.734Z,26.15
2022-12-18T19:14:42.208Z,33.35
2022-12-18T19:19:02.319Z,31.45
2022-12-18T19:23:20.199Z,40.47
2022-12-18T19:27:40.180Z,30.73
2022-12-18T19:31:57.309Z,35.95
2022-12-18T19:36:25.390Z,20.20
2022-12-18T19:40:44.463Z,42.97
2022-12-18T19:45:01.339Z,61.03
2022-12-18T19:49:18.614Z,54.92
2022-12-18T19:53:36.291Z,65.80
2022-12-18T19:57:53.382Z,35.80
2022-12-18T20:02:14.025Z,23.02
2022-12-18T20:06:35.638Z,23.33
2022-12-18T20:10:52.490Z,20.38
2022-12-18T20:15:10.612Z,23.90
2022-12-18T20:19:27.618Z,24.10
2022-12-18T20:23:45.076Z,20.42
2022-12-18T20:28:02.256Z,16.40
2022-12-18T20:32:19.404Z,22.98
2022-12-18T20:36:37.584Z,20.15
2022-12-18T20:40:55.941Z,20.08
2022-12-18T20:45:13.197Z,14.38
2022-12-18T20:49:30.712Z,13.68
2022-12-18T20:53:48.555Z,21.73
2022-12-18T20:58:05.626Z,20.70
2022-12-18T21:02:23.106Z,22.70
2022-12-18T21:06:40.068Z,16.63
2022-12-18T21:10:57.200Z,18.23
2022-12-18T21:15:14.138Z,18.08
2022-12-18T21:19:31.159Z,17.50
2022-12-18T21:23:48.301Z,16.45
2022-12-18T21:28:05.594Z,8.88
2022-12-18T21:32:23.607Z,13.48
2022-12-18T21:36:41.797Z,15.57
2022-12-18T21:40:59.189Z,15.35
2022-12-18T21:45:16.152Z,16.15
2022-12-18T21:49:33.845Z,14.48
2022-12-18T21:53:50.671Z,12.90
2022-12-18T21:58:08.493Z,13.38
2022-12-18T22:02:26.824Z,11.80
2022-12-18T22:11:01.581Z,13.60
2022-12-18T22:15:21.709Z,11.85
2022-12-18T22:19:43.107Z,13.25
2022-12-18T22:24:06.868Z,12.52
2022-12-18T22:28:42.988Z,48.05
2022-12-18T22:33:00.058Z,74.35
2022-12-18T22:37:16.938Z,97.93
2022-12-18T22:41:34.049Z,89.38
2022-12-18T22:45:50.910Z,89.70
2022-12-18T22:50:08.776Z,97.90
2022-12-18T22:54:25.642Z,71.35
2022-12-18T22:58:43.037Z,92.57
2022-12-18T23:03:01.143Z,90.30
2022-12-18T23:07:18.670Z,86.85
2022-12-18T23:11:35.523Z,110.07
2022-12-18T23:15:52.615Z,107.30
2022-12-18T23:20:10.189Z,102.68
2022-12-18T23:24:27.310Z,40.17
2022-12-18T23:28:46.165Z,45.15
2022-12-18T23:33:03.234Z,99.32
2022-12-18T23:37:49.877Z,85.25
2022-12-18T23:41:59.227Z,91.97
2022-12-18T23:46:36.075Z,64.15
2022-12-18T23:50:53.146Z,66.13
2022-12-18T23:55:10.115Z,75.47
2022-12-18T23:59:27.125Z,66.75
